Impacts METAR Board
IDs:

KSAN - San Diego Intl Arpt, CA, US

Updated at: 0300 UTC 22 Jun 2018
Potential Impact None Slight Moderate High
Time 21/15Z 21/16Z 21/17Z 21/18Z 21/19Z 21/20Z 21/21Z 21/22Z 21/23Z 22/00Z 22/01Z 22/02Z 22/03Z
Temp64 64 65 67 68 69 69 69 68 67 66 66 65
Dewpt59 59 59 60 60 60 59 59 59 58 58 58 58
Altim29.97 29.98 29.98 29.98 29.97 29.97 29.96 29.96 29.95 29.94 29.93 29.94 29.94
VIS6 7 7 8 10 10 10 10 10 10 10 10 10
CIG8 8 10 13 -- -- 16 16 16 15 14 13 11
CoverOVCOVCOVCOVCSCTSCTBKNBKNBKNOVCOVCOVCOVC
FltCatIFRIFRMVFRMVFRVFRVFRMVFRMVFRMVFRMVFRMVFRMVFRMVFR
WX-DZ BR------------------------
WDir23000220230210210220240230240230260
WSpd3 0 0 4 8 7 9 7 9 7 6 6 3
WGst-- -- -- -- -- -- -- -- -- -- -- -- --
Raw hourly METARs
KSAN 211451Z 23003KT 6SM -DZ BR OVC008 18/15 A2997 RMK AO2 SLP147 P0000 60000 T01780150 53009
KSAN 211551Z 00000KT 7SM OVC008 18/15 A2998 RMK AO2 DZE02 SLP152 P0000 T01780150
KSAN 211651Z 00000KT 7SM OVC010 18/15 A2998 RMK AO2 SLP150 T01830150
KSAN 211751Z 22004KT 8SM OVC013 19/16 A2998 RMK AO2 SLP151 60000 T01940156 10194 20172 51004
KSAN 211851Z 23008KT 10SM SCT014 20/16 A2997 RMK AO2 SLP149 T02000156
KSAN 211951Z 21007KT 10SM SCT014 21/16 A2997 RMK AO2 SLP147 T02060156
KSAN 212103Z 21009KT 10SM BKN016 21/15 A2996 RMK AO2 T02060150
KSAN 212151Z 22007KT 10SM BKN016 21/15 A2996 RMK AO2 SLP143 T02060150
KSAN 212251Z 24009KT 10SM BKN016 20/15 A2995 RMK AO2 SLP140 T02000150
KSAN 212351Z 23007KT 10SM OVC015 19/14 A2994 RMK AO2 SLP137 T01940144 10211 20189 56009
KSAN 220103Z 24006KT 10SM OVC014 19/14 A2993 RMK AO2 T01890144
KSAN 220151Z 23006KT 10SM OVC013 19/14 A2994 RMK AO2 SLP136 T01890144
KSAN 220251Z 26003KT 10SM OVC011 18/14 A2994 RMK AO2 SLP137 T01830144 55000



Page loaded:  03:10 UTC  |   08:10 PM Pacific  |   09:10 PM Mountain  |   10:10 PM Central  |   11:10 PM Eastern

 

ADVISORIES

FORECASTS

FORECASTS

OBSERVATIONS

USER TOOLS

ABOUT US